createdAt,value
2023-04-17T00:00:47.104Z,11.20
2023-04-17T00:04:55.524Z,14.20
2023-04-17T00:08:49.178Z,15.00
2023-04-17T00:12:57.352Z,19.60
2023-04-17T00:17:05.539Z,15.00
2023-04-17T00:20:59.864Z,17.70
2023-04-17T00:25:00.428Z,16.40
2023-04-17T00:29:08.637Z,20.10
2023-04-17T00:33:06.894Z,14.30
2023-04-17T00:37:05.587Z,23.00
2023-04-17T00:41:03.630Z,16.10
2023-04-17T00:45:04.448Z,16.60
2023-04-17T00:49:12.740Z,13.80
2023-04-17T00:52:48.558Z,16.50
2023-04-17T00:56:57.702Z,17.90
2023-04-17T01:00:56.409Z,17.30
2023-04-17T01:05:04.574Z,13.40
2023-04-17T01:12:23.753Z,17.30
2023-04-17T01:16:21.880Z,19.90
2023-04-17T01:20:17.351Z,15.40
2023-04-17T01:23:58.126Z,16.90
2023-04-17T01:28:07.343Z,18.90
2023-04-17T01:32:15.515Z,12.00
2023-04-17T01:36:23.670Z,18.10
2023-04-17T01:40:32.849Z,15.80
2023-04-17T01:44:42.852Z,17.20
2023-04-17T01:48:34.099Z,15.20
2023-04-17T01:52:42.343Z,17.50
2023-04-17T01:56:36.254Z,14.40
2023-04-17T02:00:27.307Z,16.00
2023-04-17T02:04:27.660Z,11.70
2023-04-17T02:08:34.634Z,10.80
2023-04-17T02:12:07.870Z,11.30
2023-04-17T02:15:31.113Z,12.90
2023-04-17T02:19:40.050Z,10.40
2023-04-17T02:23:24.532Z,8.90
2023-04-17T02:27:18.298Z,9.60
2023-04-17T02:31:26.570Z,7.20
2023-04-17T02:34:44.488Z,9.20
2023-04-17T02:38:26.059Z,10.30
2023-04-17T02:42:34.310Z,10.30
2023-04-17T02:46:42.706Z,7.30
2023-04-17T02:50:44.801Z,8.40
2023-04-17T02:54:52.978Z,8.60
2023-04-17T02:59:01.140Z,7.50
2023-04-17T03:02:50.519Z,7.60
2023-04-17T03:06:59.764Z,8.70
2023-04-17T03:11:08.078Z,8.20
2023-04-17T03:14:08.515Z,6.10
2023-04-17T03:18:22.576Z,9.20
2023-04-17T03:21:40.765Z,7.20
2023-04-17T03:25:49.954Z,8.70
2023-04-17T03:29:41.244Z,9.60
2023-04-17T03:33:48.654Z,6.60
2023-04-17T03:37:08.849Z,6.90
2023-04-17T03:40:37.484Z,7.00
2023-04-17T03:44:26.686Z,4.90
2023-04-17T03:48:09.483Z,5.90
2023-04-17T03:51:32.833Z,7.20
2023-04-17T03:55:29.554Z,5.40
2023-04-17T03:59:22.315Z,7.00
2023-04-17T04:03:12.560Z,6.20
2023-04-17T04:07:02.941Z,8.50
2023-04-17T04:10:59.901Z,5.00
2023-04-17T04:14:28.320Z,5.80
2023-04-17T04:17:51.115Z,4.80
2023-04-17T04:21:02.734Z,5.30
2023-04-17T04:24:28.042Z,3.40
2023-04-17T04:28:11.766Z,4.80
2023-04-17T04:31:59.275Z,4.60
2023-04-17T04:36:07.708Z,3.80
2023-04-17T04:39:49.446Z,5.00
2023-04-17T04:43:10.443Z,9.90
2023-04-17T04:46:54.762Z,5.70
2023-04-17T04:50:40.741Z,3.80
2023-04-17T04:54:13.847Z,2.80
2023-04-17T04:58:00.054Z,3.80
2023-04-17T05:00:56.590Z,5.10
2023-04-17T05:04:34.321Z,4.00
2023-04-17T05:07:47.883Z,2.50
2023-04-17T05:10:51.614Z,4.00
2023-04-17T05:14:12.597Z,3.20
2023-04-17T05:17:23.521Z,3.40
2023-04-17T05:20:07.152Z,3.80
2023-04-17T05:22:42.249Z,2.40
2023-04-17T05:25:24.370Z,2.90
2023-04-17T05:28:17.305Z,3.10
2023-04-17T05:30:44.949Z,4.60
2023-04-17T05:33:44.648Z,2.70
2023-04-17T05:37:12.372Z,2.20
2023-04-17T05:39:39.826Z,2.50
2023-04-17T05:42:41.303Z,2.60
2023-04-17T05:46:14.152Z,3.40
2023-04-17T05:49:25.504Z,2.40
2023-04-17T05:52:39.791Z,2.90
2023-04-17T05:55:20.183Z,4.30
2023-04-17T06:01:08.470Z,6.00
2023-04-17T06:03:55.651Z,2.50
2023-04-17T06:06:41.444Z,3.10
2023-04-17T06:09:59.498Z,4.50
2023-04-17T06:12:29.859Z,4.40
2023-04-17T06:15:10.688Z,3.80
2023-04-17T06:17:42.437Z,3.10
2023-04-17T06:20:18.676Z,5.50
2023-04-17T06:23:06.463Z,4.40
2023-04-17T06:25:46.079Z,4.90
2023-04-17T06:28:33.624Z,3.80
2023-04-17T06:31:21.071Z,4.20
2023-04-17T06:34:09.161Z,3.60
2023-04-17T06:36:49.964Z,4.30
2023-04-17T06:39:24.088Z,3.80
2023-04-17T06:42:00.471Z,4.10
2023-04-17T06:45:29.770Z,2.60
2023-04-17T06:47:57.209Z,3.70
2023-04-17T06:50:35.913Z,5.30
2023-04-17T06:53:15.162Z,4.40
2023-04-17T06:56:05.404Z,3.80
2023-04-17T06:58:57.971Z,2.70
2023-04-17T07:01:55.947Z,3.80
2023-04-17T07:04:59.471Z,4.10
2023-04-17T07:07:48.527Z,4.40
2023-04-17T07:10:16.169Z,2.60
2023-04-17T07:13:11.613Z,3.80
2023-04-17T07:15:46.884Z,4.80
2023-04-17T07:18:16.866Z,4.00
2023-04-17T07:21:27.536Z,4.80
2023-04-17T07:24:31.131Z,3.30
2023-04-17T07:27:11.540Z,5.30
2023-04-17T07:29:38.848Z,6.20
2023-04-17T07:32:07.036Z,5.80
2023-04-17T07:34:37.800Z,3.60
2023-04-17T07:37:25.812Z,5.00
2023-04-17T07:40:15.841Z,5.60
2023-04-17T07:43:22.352Z,8.90
2023-04-17T07:46:22.496Z,7.60
2023-04-17T07:48:49.736Z,4.90
2023-04-17T07:51:17.132Z,8.50
2023-04-17T07:53:47.802Z,8.50
2023-04-17T07:56:34.760Z,6.80
2023-04-17T07:59:44.958Z,7.00
2023-04-17T08:02:27.183Z,8.30
2023-04-17T08:04:55.687Z,9.60
2023-04-17T08:07:25.895Z,8.70
2023-04-17T08:09:56.537Z,10.10
2023-04-17T08:12:23.822Z,8.30
2023-04-17T08:15:11.339Z,6.60
2023-04-17T08:18:09.680Z,7.00
2023-04-17T08:20:37.479Z,7.10
2023-04-17T08:23:27.339Z,8.40
2023-04-17T08:25:54.524Z,7.60
2023-04-17T08:28:31.004Z,6.00
2023-04-17T08:31:01.219Z,6.90
2023-04-17T08:34:06.235Z,7.20
2023-04-17T08:36:49.624Z,7.20
2023-04-17T08:39:17.028Z,6.60
2023-04-17T08:41:57.950Z,6.60
2023-04-17T08:44:45.812Z,8.10
2023-04-17T08:47:55.619Z,7.30
2023-04-17T08:50:47.139Z,6.50
2023-04-17T08:54:28.181Z,9.80
2023-04-17T08:57:21.027Z,5.40
2023-04-17T08:59:51.230Z,23.80
2023-04-17T09:02:27.388Z,7.80
2023-04-17T09:04:55.795Z,10.90
2023-04-17T09:07:29.742Z,8.00
2023-04-17T09:09:57.409Z,12.00
2023-04-17T09:12:30.529Z,9.40
2023-04-17T09:15:09.755Z,8.70
2023-04-17T09:17:43.043Z,6.50
2023-04-17T09:20:28.201Z,5.60
2023-04-17T09:23:14.690Z,5.80
2023-04-17T09:25:41.945Z,8.30
2023-04-17T09:28:18.429Z,8.10
2023-04-17T09:30:49.204Z,8.60
2023-04-17T09:33:22.114Z,5.20
2023-04-17T09:35:51.751Z,6.50
2023-04-17T09:38:18.952Z,5.80
2023-04-17T09:40:46.224Z,7.70
2023-04-17T09:43:21.402Z,6.50
2023-04-17T09:45:48.796Z,7.50
2023-04-17T09:48:16.324Z,8.30
2023-04-17T09:50:55.749Z,4.50
2023-04-17T09:53:23.075Z,7.70
2023-04-17T09:56:04.417Z,6.60
2023-04-17T09:58:39.716Z,8.10
2023-04-17T10:01:09.300Z,6.50
2023-04-17T10:03:44.376Z,5.80
2023-04-17T10:06:12.242Z,6.50
2023-04-17T10:08:42.474Z,5.50
2023-04-17T10:11:33.811Z,5.50
2023-04-17T10:14:48.431Z,4.90
2023-04-17T10:17:37.266Z,4.60
2023-04-17T10:20:39.337Z,9.00
2023-04-17T10:24:08.531Z,9.70
2023-04-17T10:26:46.557Z,7.80
2023-04-17T10:29:26.114Z,9.20
2023-04-17T10:32:29.386Z,9.20
2023-04-17T10:35:36.455Z,13.90
2023-04-17T10:38:35.278Z,7.50
2023-04-17T10:41:22.891Z,15.90
2023-04-17T10:44:02.856Z,8.10
2023-04-17T10:46:31.284Z,14.50
2023-04-17T10:49:14.212Z,8.70
2023-04-17T10:51:47.626Z,8.40
2023-04-17T10:54:19.518Z,9.40
2023-04-17T10:57:18.702Z,8.70
2023-04-17T11:00:17.318Z,7.70
2023-04-17T11:03:03.236Z,9.60
2023-04-17T11:05:31.612Z,7.30
2023-04-17T11:07:59.246Z,7.70
2023-04-17T11:10:31.540Z,9.10
2023-04-17T11:13:01.960Z,5.00
2023-04-17T11:15:34.446Z,9.00
2023-04-17T11:18:22.491Z,8.20
2023-04-17T11:20:50.153Z,7.20
2023-04-17T11:23:28.973Z,7.20
2023-04-17T11:26:25.094Z,5.00
2023-04-17T11:28:55.106Z,6.20
2023-04-17T11:31:27.584Z,11.40
2023-04-17T11:34:08.365Z,5.20
2023-04-17T11:36:36.145Z,5.50
2023-04-17T11:39:08.357Z,8.50
2023-04-17T11:41:39.518Z,6.90
2023-04-17T11:44:14.621Z,8.30
2023-04-17T11:46:52.492Z,7.10
2023-04-17T11:49:28.941Z,6.50
2023-04-17T11:52:08.410Z,7.50
2023-04-17T11:55:02.631Z,7.20
2023-04-17T11:57:30.266Z,6.40
2023-04-17T12:00:26.116Z,5.10
2023-04-17T12:02:53.878Z,7.50
2023-04-17T12:05:24.487Z,5.30
2023-04-17T12:08:07.507Z,4.70
2023-04-17T12:11:02.551Z,6.20
2023-04-17T12:14:05.297Z,5.70
2023-04-17T12:16:38.107Z,5.50
2023-04-17T12:19:05.714Z,5.40
2023-04-17T12:21:33.144Z,5.50
2023-04-17T12:24:15.522Z,5.20
2023-04-17T12:27:01.743Z,5.60
2023-04-17T12:29:43.763Z,5.80
2023-04-17T12:32:28.203Z,5.30
2023-04-17T12:35:07.028Z,6.50
2023-04-17T12:37:37.478Z,4.60
2023-04-17T12:40:33.910Z,6.70
2023-04-17T12:43:05.311Z,5.50
2023-04-17T12:45:42.599Z,5.90
2023-04-17T12:48:10.202Z,8.90
2023-04-17T12:50:54.336Z,6.40
2023-04-17T12:53:21.949Z,6.30
2023-04-17T12:55:55.157Z,4.60
2023-04-17T12:58:37.814Z,5.70
2023-04-17T13:01:07.643Z,7.20
2023-04-17T13:04:09.908Z,4.70
2023-04-17T13:06:40.008Z,8.00
2023-04-17T13:09:19.984Z,6.60
2023-04-17T13:12:16.550Z,6.60
2023-04-17T13:14:52.696Z,9.30
2023-04-17T13:17:22.862Z,5.50
2023-04-17T13:20:06.943Z,9.70
2023-04-17T13:22:37.797Z,5.80
2023-04-17T13:25:19.092Z,6.70
2023-04-17T13:27:49.640Z,8.90
2023-04-17T13:30:37.842Z,9.40
2023-04-17T13:33:27.909Z,9.10
2023-04-17T13:36:02.012Z,10.30
2023-04-17T13:38:38.697Z,7.60
2023-04-17T13:41:58.326Z,8.90
2023-04-17T13:44:37.783Z,8.00
2023-04-17T13:47:28.108Z,7.90
2023-04-17T13:50:21.254Z,11.10
2023-04-17T13:52:48.619Z,8.40
2023-04-17T13:55:34.530Z,7.10
2023-04-17T13:58:01.718Z,6.50
2023-04-17T14:00:40.419Z,7.30
2023-04-17T14:03:28.016Z,8.90
2023-04-17T14:06:08.902Z,10.60
2023-04-17T14:08:36.476Z,10.20
2023-04-17T14:11:34.909Z,8.70
2023-04-17T14:14:22.744Z,11.70
2023-04-17T14:17:44.215Z,5.40
2023-04-17T14:20:42.884Z,7.50
2023-04-17T14:23:30.590Z,8.50
2023-04-17T14:26:23.128Z,5.80
2023-04-17T14:28:55.752Z,8.60
2023-04-17T14:31:36.139Z,6.70
2023-04-17T14:34:33.884Z,11.00
2023-04-17T14:37:36.616Z,9.00
2023-04-17T14:40:22.459Z,8.00
2023-04-17T14:43:02.716Z,12.90
2023-04-17T14:45:32.815Z,11.80
2023-04-17T14:48:23.843Z,10.10
2023-04-17T14:50:50.955Z,12.70
2023-04-17T14:54:02.024Z,11.70
2023-04-17T14:56:35.245Z,9.20
2023-04-17T14:59:11.462Z,9.50
2023-04-17T15:02:12.756Z,11.20
2023-04-17T15:04:56.081Z,13.60
2023-04-17T15:07:53.263Z,11.90
2023-04-17T15:10:22.853Z,8.00
2023-04-17T15:13:04.466Z,9.00
2023-04-17T15:15:34.930Z,8.30
2023-04-17T15:18:15.902Z,6.20
2023-04-17T15:20:53.480Z,6.80
2023-04-17T15:23:29.974Z,10.10
2023-04-17T15:25:57.886Z,7.60
2023-04-17T15:28:29.738Z,6.70
2023-04-17T15:30:56.978Z,6.70
2023-04-17T15:33:26.985Z,8.10
2023-04-17T15:35:55.516Z,9.50
2023-04-17T15:38:23.321Z,8.30
2023-04-17T15:40:53.897Z,6.70
2023-04-17T15:43:27.093Z,11.80
2023-04-17T15:46:07.076Z,8.80
2023-04-17T15:48:43.288Z,9.30
2023-04-17T15:51:26.985Z,8.10
2023-04-17T15:53:54.727Z,9.30
2023-04-17T15:56:46.936Z,8.90
2023-04-17T15:59:27.013Z,8.30
2023-04-17T16:01:54.172Z,8.00
2023-04-17T16:04:22.111Z,8.80
2023-04-17T16:06:49.279Z,11.10
2023-04-17T16:09:20.086Z,11.00
2023-04-17T16:14:47.413Z,9.10
2023-04-17T16:17:35.361Z,5.70
2023-04-17T16:20:20.069Z,13.70
2023-04-17T16:22:56.657Z,8.20
2023-04-17T16:25:24.167Z,12.20
2023-04-17T16:28:04.502Z,10.80
2023-04-17T16:30:35.022Z,11.30
2023-04-17T16:33:02.769Z,12.70
2023-04-17T16:35:31.416Z,11.50
2023-04-17T16:37:58.640Z,10.30
2023-04-17T16:40:38.650Z,14.10
2023-04-17T16:43:21.836Z,10.70
2023-04-17T16:46:01.234Z,15.00
2023-04-17T16:48:34.374Z,14.30
2023-04-17T16:51:07.203Z,22.10
2023-04-17T16:53:44.364Z,88.20
2023-04-17T16:56:34.091Z,62.90
2023-04-17T16:59:03.965Z,274.20
2023-04-17T17:02:19.671Z,399.00
2023-04-17T17:04:52.407Z,123.40
2023-04-17T17:07:22.381Z,144.90
2023-04-17T17:09:52.134Z,301.40
2023-04-17T17:12:19.488Z,227.10
2023-04-17T17:14:59.480Z,258.80
2023-04-17T17:17:29.970Z,41.70
2023-04-17T17:19:57.162Z,44.50
2023-04-17T17:22:24.726Z,14.60
2023-04-17T17:24:58.206Z,65.20
2023-04-17T17:27:27.871Z,42.40
2023-04-17T17:29:59.678Z,21.80
2023-04-17T17:32:33.286Z,184.50
2023-04-17T17:35:19.238Z,56.20
2023-04-17T17:37:46.548Z,16.00
2023-04-17T17:40:16.718Z,49.50
2023-04-17T17:42:47.846Z,25.20
2023-04-17T17:45:24.448Z,44.50
2023-04-17T17:47:55.230Z,56.70
2023-04-17T17:50:45.820Z,19.50
2023-04-17T17:53:26.172Z,10.90
2023-04-17T17:56:25.099Z,25.30
2023-04-17T17:59:09.417Z,25.50
2023-04-17T18:01:45.295Z,17.60
2023-04-17T18:04:46.086Z,19.30
2023-04-17T18:07:41.088Z,14.80
2023-04-17T18:10:13.303Z,18.90
2023-04-17T18:12:43.749Z,8.90
2023-04-17T18:15:22.470Z,7.70
2023-04-17T18:18:04.272Z,9.30
2023-04-17T18:20:41.101Z,9.00
2023-04-17T18:23:16.722Z,8.50
2023-04-17T18:25:45.138Z,6.50
2023-04-17T18:28:12.402Z,10.60
2023-04-17T18:30:42.871Z,12.30
2023-04-17T18:33:13.224Z,8.40
2023-04-17T18:35:43.602Z,11.00
2023-04-17T18:38:32.050Z,13.00
2023-04-17T18:41:04.528Z,15.50
2023-04-17T18:43:31.909Z,11.60
2023-04-17T18:46:07.626Z,18.10
2023-04-17T18:48:37.411Z,20.30
2023-04-17T18:51:26.147Z,19.80
2023-04-17T18:53:56.060Z,16.10
2023-04-17T18:56:24.020Z,18.50
2023-04-17T18:59:30.273Z,16.00
2023-04-17T19:02:28.559Z,28.10
2023-04-17T19:05:27.841Z,24.10
2023-04-17T19:08:03.552Z,15.50
2023-04-17T19:10:31.110Z,24.80
2023-04-17T19:13:09.943Z,25.80
2023-04-17T19:16:06.736Z,29.50
2023-04-17T19:19:16.409Z,20.50
2023-04-17T19:21:49.699Z,17.30
2023-04-17T19:24:49.913Z,21.20
2023-04-17T19:27:58.211Z,22.40
2023-04-17T19:30:53.986Z,31.00
2023-04-17T19:33:36.233Z,15.10
2023-04-17T19:36:29.924Z,14.60
2023-04-17T19:39:45.396Z,13.30
2023-04-17T19:42:48.635Z,14.20
2023-04-17T19:45:36.141Z,14.10
2023-04-17T19:48:33.340Z,13.10
2023-04-17T19:51:38.422Z,12.70
2023-04-17T19:54:43.812Z,9.80
2023-04-17T19:57:36.549Z,6.30
2023-04-17T20:01:04.499Z,9.00
2023-04-17T20:03:55.688Z,10.90
2023-04-17T20:06:53.829Z,6.50
2023-04-17T20:11:02.031Z,8.90
2023-04-17T20:14:20.783Z,8.40
2023-04-17T20:17:31.371Z,8.60
2023-04-17T20:19:58.724Z,5.80
2023-04-17T20:23:13.130Z,7.10
2023-04-17T20:26:19.927Z,7.20
2023-04-17T20:30:05.396Z,7.40
2023-04-17T20:33:32.288Z,8.90
2023-04-17T20:36:46.280Z,9.70
2023-04-17T20:39:41.056Z,8.70
2023-04-17T20:43:22.323Z,9.60
2023-04-17T20:47:30.461Z,8.60
2023-04-17T20:50:59.822Z,10.20
2023-04-17T20:54:58.541Z,7.60
2023-04-17T20:58:18.500Z,6.30
2023-04-17T21:01:36.177Z,7.20
2023-04-17T21:05:36.990Z,6.70
2023-04-17T21:09:06.946Z,7.00
2023-04-17T21:13:15.136Z,10.40
2023-04-17T21:16:23.010Z,5.60
2023-04-17T21:20:00.317Z,4.70
2023-04-17T21:23:18.328Z,7.20
2023-04-17T21:27:00.051Z,7.30
2023-04-17T21:30:58.999Z,6.20
2023-04-17T21:35:07.303Z,8.50
2023-04-17T21:38:11.479Z,8.00
2023-04-17T21:41:39.558Z,7.40
2023-04-17T21:45:48.340Z,8.40
2023-04-17T21:49:56.621Z,6.60
2023-04-17T21:54:04.752Z,6.00
2023-04-17T21:57:52.839Z,5.40
2023-04-17T22:01:59.977Z,9.40
2023-04-17T22:05:41.345Z,5.10
2023-04-17T22:09:42.251Z,4.90
2023-04-17T22:13:23.820Z,7.10
2023-04-17T22:17:32.095Z,6.80
2023-04-17T22:21:40.272Z,6.40
2023-04-17T22:25:48.618Z,4.80
2023-04-17T22:29:39.675Z,5.40
2023-04-17T22:33:37.714Z,5.50
2023-04-17T22:37:05.791Z,6.10
2023-04-17T22:40:49.942Z,4.50
2023-04-17T22:44:39.888Z,7.10
2023-04-17T22:48:48.072Z,5.10
2023-04-17T22:52:56.405Z,6.50
2023-04-17T22:56:54.522Z,6.30
2023-04-17T23:00:47.477Z,5.60
2023-04-17T23:04:55.335Z,4.70
2023-04-17T23:08:46.008Z,6.60
2023-04-17T23:12:54.331Z,7.60
2023-04-17T23:16:37.710Z,6.30
2023-04-17T23:20:31.428Z,6.50
2023-04-17T23:24:29.635Z,4.50
2023-04-17T23:28:20.066Z,3.60
2023-04-17T23:32:28.445Z,6.30
2023-04-17T23:36:30.025Z,4.60
2023-04-17T23:39:53.307Z,5.70
2023-04-17T23:43:51.481Z,5.20
2023-04-17T23:47:51.936Z,5.40
2023-04-17T23:51:50.000Z,4.50
2023-04-17T23:55:25.865Z,5.20
2023-04-17T23:59:23.931Z,5.10
